Lancaster, PA

6:40 PM EDT on July 24, 2017 (GMT -0400)
Willow Acres | | Change Station

Elev 120 ft 40.03 °N, 76.20 °W | Updated 40 minutes ago

Partly Cloudy
Partly Cloudy
87.3 °F
Feels Like 93 °F
N
4.0
Wind Variable Wind from SSW

Today
High -- | Low -- °F
--% Chance of Precip.
Yesterday
High -- | Low -- °F
Precip. -- in
Pressure 29.78 in
Visibility 10.0 miles
Clouds Few 4200 ft
Scattered Clouds 10000 ft
Mostly Cloudy 12000 ft
Heat Index 93 °F
Dew Point 71 °F
Humidity 59%
Rainfall 0.43 in
Snow Depth Not available.
5:56 AM 8:25 PM
Waxing Crescent, 3% visible
METAR KLNS 242153Z 23013KT 10SM FEW042 SCT100 BKN120 29/21 A2979 RMK AO2 LTG DSNT NW SLP084 T02940206
Pressure 29.78 in
Visibility 10.0 miles
Clouds Few 4200 ft
Scattered Clouds 10000 ft
Mostly Cloudy 12000 ft
Heat Index 93 °F
Dew Point 71 °F
Humidity 59%
Rainfall 0.43 in
Snow Depth Not available.
5:56 AM 8:25 PM
Waxing Crescent, 3% visible
METAR KLNS 242153Z 23013KT 10SM FEW042 SCT100 BKN120 29/21 A2979 RMK AO2 LTG DSNT NW SLP084 T02940206

Get Severe Weather Alerts

Thanks for signing up!

Be on the lookout for a verification email in your inbox.

You'll start receiving the daily forecast at 6 AM.

×

10-Day Weather Forecast

Almanac

Astronomy

Jul. 24, 2017 Rise Set
Actual Time
Civil Twilight
Nautical Twilight
Astronomical Twilight
Moon
Length of Visible Light
Length of Day
Tomorrow will be .
, % of the Moon is Illuminated

Today's Extremes

State Highs State Lows

Community

WunderPhotos

Category 6

Welcome to Category 6. This is the collective home for Weather Underground's featured writeups by Dr. Jeff Masters (right), Bob Henson (left), Chris Burt, and other regular contributors.

Nearby

Air Quality

  Air Quality AQ Index Pollutant
Not available.

Snow Depth

Station Depth Elevation

Earthquake Activity

City Distance Mag. Time & Date
Minimum magnitude displayed is 2.5.

Coastal Water Temperatures

Place Temperature

Stations

Nearby Weather Stations

Station Location Temp. Windchill Dew Point Humidity Wind Precip. Elev Updated Type
                   

Watches & Warnings

There are currently no watches in effect.